Change the Weather History Date:

Saturday, February 8, 2014

  Actual Average Record
Temperature  
Mean Temperature 13 °F -  
Max Temperature 20 °F 31 °F 70 °F (1954)
Min Temperature 6 °F 10 °F -14 °F (1971)
Degree Days  
Heating Degree Days 52    
Moisture  
Dew Point 9 °F    
Average Humidity 77    
Maximum Humidity 83    
Minimum Humidity 65    
Precipitation  
Precipitation 0.00 in - - ()
Sea Level Pressure  
Sea Level Pressure 30.00 in    
Wind  
Wind Speed 10 mph (NW)    
Max Wind Speed 15 mph    
Max Gust Speed 22 mph    
Visibility 9 miles    
Events Snow    
Averages and records for this station are not official NWS values.
T = Trace of Precipitation, MM = Missing Value Source: NWS Daily Summary

Daily Weather History Graph

Daily Weather History Graph

Search for Another Location

Airport or City:

Trip Planner

Search our weather history database for the weather conditions in past years. The results will help you decide how hot, cold, wet, or windy it might be!

Date:

Astronomy

Feb. 08, 2014 Rise Set
Actual Time 7:40 AM CST 5:57 PM CST
Civil Twilight 7:11 AM CST 6:27 PM CST
Nautical Twilight 6:37 AM CST 7:00 PM CST
Astronomical Twilight 6:05 AM CST 7:33 PM CST
Moon 12:51 PM CST (2/8) 2:56 AM CST (2/8)
Length of Visible Light 11h 16m
Length of Day
10h 17m
Waxing Gibbous, 69% of the Moon is Illuminated
Feb 8
Waxing Gibbous
Feb 14
Full
Feb 22
Last Quarter
Mar 1
New
Mar 8
First Quarter

Hourly Weather History & Observations

Time (CST) Temp. Windchill Dew Point Humidity Pressure Visibility Wind Dir Wind Speed Gust Speed Precip Events Conditions
12:15 AM 12.9 °F -1.6 °F 7.3 °F 78% 29.92 in 10.0 mi South 12.7 mph - N/A   Mostly Cloudy
12:35 AM 12.7 °F -2.5 °F 6.8 °F 77% 29.89 in 10.0 mi South 13.8 mph - N/A   Mostly Cloudy
12:55 AM 12.2 °F -1.8 °F 6.8 °F 79% 29.89 in 10.0 mi South 11.5 mph - N/A   Scattered Clouds
1:15 AM 12.0 °F -2.7 °F 6.6 °F 79% 29.90 in 10.0 mi South 12.7 mph 19.6 mph N/A   Mostly Cloudy
1:35 AM 11.7 °F -1.7 °F 6.4 °F 80% 29.89 in 10.0 mi South 10.4 mph - N/A   Scattered Clouds
1:55 AM 12.2 °F -2.5 °F 6.8 °F 79% 29.88 in 10.0 mi South 12.7 mph - N/A   Mostly Cloudy
2:15 AM 12.7 °F -1.1 °F 7.5 °F 80% 29.88 in 10.0 mi South 11.5 mph - N/A   Overcast
2:35 AM 13.1 °F -1.4 °F 8.1 °F 80% 29.88 in 10.0 mi South 12.7 mph - N/A   Overcast
2:55 AM 13.3 °F -0.5 °F 8.1 °F 80% 29.87 in 10.0 mi South 11.5 mph - N/A   Scattered Clouds
3:15 AM 13.1 °F 0.1 °F 7.9 °F 80% 29.87 in 10.0 mi SSW 10.4 mph - N/A   Clear
3:35 AM 13.1 °F 0.1 °F 7.7 °F 79% 29.87 in 10.0 mi SSW 10.4 mph - N/A   Clear
3:55 AM 12.2 °F -1.0 °F 6.8 °F 79% 29.86 in 10.0 mi SW 10.4 mph - N/A   Clear
4:15 AM 11.3 °F -1.3 °F 6.1 °F 80% 29.86 in 10.0 mi SSW 9.2 mph - N/A   Clear
4:35 AM 10.4 °F -2.4 °F 5.5 °F 81% 29.86 in 10.0 mi SW 9.2 mph - N/A   Clear
4:55 AM 11.3 °F -1.3 °F 5.7 °F 78% 29.86 in 10.0 mi WSW 9.2 mph - N/A   Clear
5:15 AM 11.1 °F -1.6 °F 4.8 °F 76% 29.86 in 10.0 mi WSW 9.2 mph - N/A   Clear
5:35 AM 10.2 °F -2.7 °F 3.9 °F 76% 29.88 in 10.0 mi West 9.2 mph - N/A   Clear
5:55 AM 11.1 °F -4.5 °F 3.2 °F 70% 29.89 in 10.0 mi WNW 13.8 mph - N/A   Clear
6:15 AM 10.4 °F -6.0 °F 2.8 °F 72% 29.90 in 10.0 mi WNW 15.0 mph - N/A   Clear
6:35 AM 10.0 °F -6.5 °F 2.8 °F 73% 29.90 in 10.0 mi WNW 15.0 mph 20.7 mph N/A   Clear
6:55 AM 9.1 °F -7.0 °F 2.3 °F 74% 29.91 in 10.0 mi NW 13.8 mph 21.9 mph N/A   Clear
7:15 AM 8.2 °F -6.0 °F 2.3 °F 77% 29.92 in 10.0 mi NW 10.4 mph - N/A   Clear
7:35 AM 7.7 °F -4.8 °F 2.1 °F 78% 29.93 in 10.0 mi NW 8.1 mph - N/A   Clear
7:55 AM 7.3 °F -6.2 °F 1.8 °F 78% 29.94 in 10.0 mi NW 9.2 mph - N/A   Clear
8:15 AM 6.8 °F -4.8 °F 1.2 °F 78% 29.95 in 10.0 mi WNW 6.9 mph - N/A   Clear
8:35 AM 7.7 °F -3.7 °F 1.9 °F 77% 29.95 in 10.0 mi WNW 6.9 mph - N/A   Clear
8:55 AM 8.6 °F -1.3 °F 2.3 °F 76% 29.96 in 10.0 mi NW 5.8 mph - N/A   Clear
9:15 AM 9.7 °F -1.3 °F 3.4 °F 76% 29.97 in 10.0 mi WNW 6.9 mph - N/A   Clear
9:35 AM 10.8 °F -1.1 °F 4.6 °F 76% 29.97 in 10.0 mi NW 8.1 mph - N/A   Clear
9:55 AM 12.0 °F 0.5 °F 6.1 °F 77% 29.98 in 10.0 mi NW 8.1 mph - N/A   Clear
10:15 AM 13.3 °F 2.0 °F 6.8 °F 75% 29.97 in 10.0 mi NW 8.1 mph - N/A   Clear
10:35 AM 14.2 °F 4.1 °F 7.7 °F 75% 29.99 in 10.0 mi NW 6.9 mph - N/A   Clear
10:55 AM 15.1 °F 5.2 °F 8.2 °F 74% 29.99 in 10.0 mi NW 6.9 mph - N/A   Clear
11:15 AM 16.0 °F 5.3 °F 8.8 °F 73% 30.00 in 10.0 mi NW 8.1 mph - N/A   Clear
11:35 AM 16.7 °F 6.2 °F 9.3 °F 73% 29.99 in 10.0 mi NNW 8.1 mph - N/A   Clear
11:55 AM 16.7 °F 7.2 °F 9.1 °F 72% 30.00 in 10.0 mi NNW 6.9 mph - N/A   Scattered Clouds
12:15 PM 17.2 °F 7.8 °F 9.1 °F 71% 30.00 in 10.0 mi NNW 6.9 mph - N/A   Mostly Cloudy
12:35 PM 17.6 °F 8.2 °F 9.5 °F 71% 30.00 in 10.0 mi NNW 6.9 mph - N/A   Overcast
12:55 PM 17.8 °F 8.5 °F 9.5 °F 70% 30.00 in 10.0 mi NW 6.9 mph - N/A   Overcast
1:15 PM 18.5 °F 9.3 °F 10.2 °F 70% 29.99 in 10.0 mi NW 6.9 mph - N/A   Overcast
1:35 PM 18.3 °F 7.3 °F 10.0 °F 70% 29.99 in 10.0 mi NNW 9.2 mph - N/A   Overcast
1:55 PM 18.5 °F 9.3 °F 10.0 °F 70% 29.98 in 10.0 mi NNW 6.9 mph - N/A   Overcast
2:15 PM 18.5 °F 8.4 °F 10.4 °F 71% 29.98 in 10.0 mi NNW 8.1 mph - N/A   Overcast
2:35 PM 18.5 °F 11.7 °F 10.0 °F 70% 29.98 in 10.0 mi NNW 4.6 mph - N/A   Overcast
2:55 PM 18.9 °F 10.8 °F 10.0 °F 69% 30.00 in 10.0 mi NNW 5.8 mph - N/A   Overcast
3:15 PM 19.2 °F 11.3 °F 10.4 °F 69% 30.01 in 10.0 mi NW 5.8 mph - N/A   Overcast
3:35 PM 19.2 °F 11.3 °F 10.9 °F 70% 30.01 in 5.0 mi NNW 5.8 mph - N/A Snow Light Snow
3:55 PM 19.9 °F 11.1 °F 10.6 °F 67% 30.03 in 10.0 mi NW 6.9 mph - N/A   Overcast
4:15 PM 20.1 °F 8.8 °F 10.0 °F 65% 30.04 in 10.0 mi NNW 10.4 mph - N/A   Overcast
4:35 PM 19.9 °F 11.1 °F 11.8 °F 71% 30.05 in 3.0 mi NNW 6.9 mph - N/A Snow Light Snow
4:55 PM 19.2 °F 11.3 °F 14.0 °F 80% 30.07 in 1.2 mi NW 5.8 mph - N/A Snow Light Snow
5:15 PM 18.9 °F 9.8 °F 13.8 °F 81% 30.07 in 3.0 mi NW 6.9 mph - N/A Snow Light Snow
5:35 PM 18.9 °F 10.8 °F 14.0 °F 81% 30.07 in 5.0 mi NNW 5.8 mph - N/A Snow Light Snow
5:55 PM 18.7 °F 13.5 °F 14.0 °F 82% 30.07 in 5.0 mi NNW 3.5 mph - N/A   Haze
6:15 PM 18.5 °F 10.4 °F 13.6 °F 81% 30.08 in 10.0 mi NNW 5.8 mph - N/A   Overcast
6:35 PM 18.3 °F 11.5 °F 13.1 °F 80% 30.09 in 10.0 mi NNW 4.6 mph - N/A Snow Light Snow
6:55 PM 18.3 °F - 13.1 °F 80% 30.09 in 7.0 mi Calm Calm - N/A   Overcast
7:15 PM 18.3 °F 10.2 °F 13.1 °F 80% 30.11 in 10.0 mi NNW 5.8 mph - N/A   Overcast
7:35 PM 18.1 °F 11.3 °F 13.1 °F 81% 30.09 in 10.0 mi North 4.6 mph - N/A   Overcast
7:55 PM 18.0 °F 12.7 °F 12.7 °F 80% 30.11 in 10.0 mi North 3.5 mph - N/A   Overcast
8:15 PM 17.6 °F 12.3 °F 12.7 °F 81% 30.11 in 10.0 mi North 3.5 mph - N/A   Overcast
8:35 PM 17.4 °F 9.1 °F 12.9 °F 83% 30.12 in 10.0 mi NNW 5.8 mph - N/A   Overcast
8:55 PM 17.6 °F 8.2 °F 12.9 °F 82% 30.14 in 10.0 mi NNW 6.9 mph - N/A   Overcast
9:15 PM 17.4 °F 7.1 °F 12.9 °F 83% 30.15 in 10.0 mi NNW 8.1 mph - N/A   Overcast
9:35 PM 17.4 °F 6.2 °F 12.9 °F 83% 30.15 in 10.0 mi NNW 9.2 mph - N/A   Overcast
9:55 PM 17.2 °F 4.5 °F 12.0 °F 80% 30.17 in 10.0 mi NNW 11.5 mph 17.3 mph N/A   Overcast
10:15 PM 16.5 °F 3.0 °F 11.3 °F 80% 30.18 in 10.0 mi NNW 12.7 mph - N/A   Mostly Cloudy
10:35 PM 16.0 °F 2.9 °F 10.6 °F 79% 30.18 in 10.0 mi NNW 11.5 mph - N/A   Scattered Clouds
10:55 PM 15.8 °F 2.1 °F 10.4 °F 79% 30.19 in 10.0 mi NNW 12.7 mph - N/A   Mostly Cloudy
11:15 PM 15.4 °F 1.0 °F 10.2 °F 80% 30.21 in 10.0 mi NNW 13.8 mph - N/A   Mostly Cloudy
11:35 PM 14.9 °F 4.0 °F 9.3 °F 79% 30.21 in 10.0 mi NNW 8.1 mph - N/A   Overcast
11:55 PM 13.1 °F 0.9 °F 7.5 °F 78% 30.22 in 10.0 mi NNW 9.2 mph - N/A   Mostly Cloudy